Time;durP1;ratioP1;P1;durP2;ratioP2;P2;SDS_P1;SDS_P2;PMS_P1;PMS_P2;Temp;Humidity;BMP_temperature;BMP_pressure;BME280_temperature;BME280_humidity;BME280_pressure;Samples;Min_cycle;Max_cycle;Signal;HPM_P1;HPM_P2
2023/08/13 00:00:56;;;;;;;14.65;14.15;;;;;;;-141.02;100.00;39416.69;5135406;27;20193;-62
2023/08/13 00:03:23;;;;;;;14.50;14.00;;;;;;;-141.02;100.00;39393.66;5135224;27;20200;-65
2023/08/13 00:05:50;;;;;;;14.48;13.98;;;;;;;-141.02;100.00;39412.84;5135590;27;20284;-64
2023/08/13 00:08:17;;;;;;;14.30;13.80;;;;;;;-141.02;100.00;39428.19;5135540;27;20198;-65
2023/08/13 00:10:45;;;;;;;14.57;14.07;;;;;;;-141.02;100.00;39485.72;5135134;27;20573;-62
2023/08/13 00:13:13;;;;;;;14.98;14.38;;;;;;;-141.02;100.00;39430.09;5135427;27;20228;-63
2023/08/13 00:15:40;;;;;;;14.60;14.10;;;;;;;-141.02;100.00;39405.19;5135365;27;20189;-66
2023/08/13 00:18:07;;;;;;;14.57;14.07;;;;;;;-141.02;100.00;39405.19;5135281;27;20234;-63
2023/08/13 00:20:34;;;;;;;14.40;13.90;;;;;;;-141.02;100.00;39460.78;5135272;27;20551;-64
2023/08/13 00:23:01;;;;;;;14.27;13.77;;;;;;;-141.02;100.00;39393.66;5135023;27;20223;-59
2023/08/13 00:25:28;;;;;;;14.25;13.75;;;;;;;-141.02;100.00;39386.00;5135228;27;20185;-65
2023/08/13 00:27:56;;;;;;;14.05;13.55;;;;;;;-141.02;100.00;39347.66;5135116;27;20276;-62
2023/08/13 00:30:23;;;;;;;13.60;13.10;;;;;;;-141.02;100.00;39316.97;5135117;27;20199;-62
2023/08/13 00:32:50;;;;;;;13.02;12.63;;;;;;;-141.02;100.00;39282.44;5134936;27;20668;-66
2023/08/13 00:35:17;;;;;;;12.85;12.45;;;;;;;-141.02;100.00;39255.59;5135066;27;20199;-66
2023/08/13 00:37:44;;;;;;;13.18;12.77;;;;;;;-141.02;100.00;39232.59;5134909;27;20231;-62
2023/08/13 00:40:12;;;;;;;13.23;12.82;;;;;;;-141.02;100.00;39215.31;5134556;27;20198;-66
2023/08/13 00:42:39;;;;;;;13.00;12.60;;;;;;;-141.02;100.00;39217.25;5134878;27;20189;-63
2023/08/13 00:45:08;;;;;;;13.07;12.68;;;;;;;-141.02;100.00;39219.16;5134757;27;20211;-65
2023/08/13 00:47:35;;;;;;;12.73;12.32;;;;;;;-141.02;100.00;39244.09;5134782;27;20194;-64
2023/08/13 00:50:05;;;;;;;13.48;13.07;;;;;;;-141.02;100.00;39213.41;5134409;27;20196;-66
2023/08/13 00:52:34;;;;;;;13.50;13.10;;;;;;;-141.02;100.00;39205.72;5134219;27;20236;-66
2023/08/13 00:55:00;;;;;;;14.23;13.73;;;;;;;-141.02;100.00;39228.75;5134613;27;20292;-63
2023/08/13 00:57:27;;;;;;;14.18;13.68;;;;;;;-141.02;100.00;39213.41;5134095;27;20228;-65
2023/08/13 00:59:55;;;;;;;14.15;13.65;;;;;;;-141.02;100.00;39213.41;5134607;27;20202;-66
2023/08/13 01:02:24;;;;;;;14.00;13.50;;;;;;;-141.02;100.00;39228.75;5134460;27;20201;-67
2023/08/13 01:04:51;;;;;;;13.90;13.40;;;;;;;-141.02;100.00;39267.09;5134100;27;20202;-66
2023/08/13 01:07:22;;;;;;;13.82;13.32;;;;;;;-141.02;100.00;39255.59;5134376;27;20208;-64
2023/08/13 01:10:00;;;;;;;14.18;13.68;;;;;;;-141.02;100.00;39270.94;5134313;27;20195;-62
2023/08/13 01:12:34;;;;;;;14.10;13.60;;;;;;;-141.02;100.00;39255.59;5134025;27;20252;-66
2023/08/13 01:15:06;;;;;;;14.00;13.50;;;;;;;-141.02;100.00;39284.34;5134229;27;20187;-66
2023/08/13 01:17:36;;;;;;;14.15;13.65;;;;;;;-141.02;100.00;39269.00;5133846;27;20219;-62
2023/08/13 01:20:06;;;;;;;13.85;13.35;;;;;;;-141.02;100.00;39278.59;5133980;27;20193;-66
2023/08/13 01:22:38;;;;;;;13.80;13.30;;;;;;;-141.02;100.00;39246.00;5133783;27;20658;-66
2023/08/13 01:25:08;;;;;;;13.73;13.23;;;;;;;-141.02;100.00;39259.44;5133868;27;20235;-66
2023/08/13 01:27:41;;;;;;;13.82;13.32;;;;;;;-141.02;100.00;39269.00;5134213;27;20283;-67
2023/08/13 01:30:14;;;;;;;14.13;13.63;;;;;;;-141.02;100.00;39255.59;5133618;27;20569;-66
2023/08/13 01:32:49;;;;;;;13.88;13.38;;;;;;;-141.02;100.00;39280.53;5133949;27;20653;-62
2023/08/13 01:35:20;;;;;;;13.10;12.70;;;;;;;-141.02;100.00;39267.09;5133572;27;20279;-65
2023/08/13 01:37:50;;;;;;;12.60;12.20;;;;;;;-141.02;100.00;39251.75;5133468;27;20213;-66
2023/08/13 01:40:18;;;;;;;12.75;12.35;;;;;;;-141.02;100.00;39255.59;5134285;27;20193;-63
2023/08/13 01:42:44;;;;;;;12.90;12.50;;;;;;;-141.02;100.00;39240.25;5133693;27;20189;-64
2023/08/13 01:45:11;;;;;;;13.50;13.10;;;;;;;-141.02;100.00;39251.75;5133596;27;20203;-63
2023/08/13 01:47:38;;;;;;;13.80;13.30;;;;;;;-141.02;100.00;39223.00;5133587;27;20193;-67
2023/08/13 01:50:06;;;;;;;13.27;12.88;;;;;;;-141.02;100.00;39224.91;5133264;27;20192;-67
2023/08/13 01:52:33;;;;;;;13.18;12.77;;;;;;;-141.02;100.00;39263.25;5133579;27;20222;-63
2023/08/13 01:55:01;;;;;;;13.25;12.85;;;;;;;-141.02;100.00;39251.75;5133524;27;20192;-65
2023/08/13 01:57:28;;;;;;;13.10;12.70;;;;;;;-141.02;100.00;39263.25;5133263;27;20315;-63
2023/08/13 01:59:55;;;;;;;13.50;13.10;;;;;;;-141.02;100.00;39215.31;5133164;27;20196;-66
2023/08/13 02:02:22;;;;;;;14.02;13.52;;;;;;;-141.02;100.00;39259.44;5133081;27;20283;-67
2023/08/13 02:04:49;;;;;;;13.85;13.35;;;;;;;-141.02;100.00;39253.69;5132943;27;20204;-65
2023/08/13 02:07:16;;;;;;;13.88;13.38;;;;;;;-141.02;100.00;39263.25;5133176;27;20636;-67
2023/08/13 02:09:43;;;;;;;13.60;13.20;;;;;;;-141.02;100.00;39272.84;5133514;27;20203;-63
2023/08/13 02:12:11;;;;;;;13.30;12.90;;;;;;;-141.02;100.00;39263.25;5133360;27;20291;-65
2023/08/13 02:14:38;;;;;;;13.30;12.90;;;;;;;-141.02;100.00;39253.69;5132904;27;20199;-65
2023/08/13 02:17:05;;;;;;;13.50;13.05;;;;;;;-141.02;100.00;39259.44;5133083;27;20279;-63
2023/08/13 02:19:32;;;;;;;13.13;12.73;;;;;;;-141.02;100.00;39247.91;5132859;28;20623;-66
2023/08/13 02:21:59;;;;;;;13.48;13.07;;;;;;;-141.02;100.00;39255.59;5132865;28;20683;-67
2023/08/13 02:24:26;;;;;;;13.10;12.70;;;;;;;-141.02;100.00;39263.25;5132944;27;20232;-65
2023/08/13 02:26:53;;;;;;;13.25;12.85;;;;;;;-141.02;100.00;39247.91;5132856;28;20192;-64
2023/08/13 02:29:21;;;;;;;13.88;13.38;;;;;;;-141.02;100.00;39259.44;5133179;28;20200;-66
2023/08/13 02:31:48;;;;;;;14.18;13.68;;;;;;;-141.02;100.00;39232.59;5132736;28;20283;-65
2023/08/13 02:34:15;;;;;;;14.05;13.55;;;;;;;-141.02;100.00;39240.25;5133103;28;20199;-67
2023/08/13 02:36:42;;;;;;;14.32;13.82;;;;;;;-141.02;100.00;39224.91;5133104;28;20192;-65
2023/08/13 02:39:09;;;;;;;14.40;13.90;;;;;;;-141.02;100.00;39251.75;5132645;28;20232;-66
2023/08/13 02:41:36;;;;;;;14.40;13.90;;;;;;;-141.02;100.00;39278.59;5133056;28;20573;-66
2023/08/13 02:44:02;;;;;;;14.70;14.20;;;;;;;-141.02;100.00;39272.84;5132946;28;20272;-64
2023/08/13 02:46:31;;;;;;;13.93;13.43;;;;;;;-141.02;100.00;39297.78;5132640;28;20733;-66
2023/08/13 02:48:58;;;;;;;13.88;13.38;;;;;;;-141.02;100.00;39290.13;5132668;28;20280;-59
2023/08/13 02:51:25;;;;;;;13.32;12.93;;;;;;;-141.02;100.00;39305.44;5132905;28;20188;-66
2023/08/13 02:53:52;;;;;;;13.25;12.85;;;;;;;-141.02;100.00;39270.94;5132615;28;20192;-64
2023/08/13 02:56:20;;;;;;;12.80;12.40;;;;;;;-141.02;100.00;39272.84;5132724;28;20193;-66
2023/08/13 02:58:47;;;;;;;12.50;12.10;;;;;;;-141.02;100.00;39255.59;5132826;28;20230;-66
2023/08/13 03:01:14;;;;;;;11.90;11.50;;;;;;;-141.02;100.00;39236.41;5132544;28;20199;-65
2023/08/13 03:03:48;;;;;;;11.85;11.45;;;;;;;-141.02;100.00;39221.06;5132467;28;20203;-63
2023/08/13 03:06:15;;;;;;;11.77;11.38;;;;;;;-141.02;100.00;39184.63;5133626;28;20275;-64
2023/08/13 03:08:42;;;;;;;12.02;11.63;;;;;;;-141.02;100.00;39188.47;5132709;28;20196;-66
2023/08/13 03:11:09;;;;;;;11.50;11.20;;;;;;;-141.02;100.00;39199.97;5132496;27;20224;-66
2023/08/13 03:13:36;;;;;;;12.00;11.60;;;;;;;-141.02;100.00;39247.91;5132837;28;20284;-65
2023/08/13 03:16:03;;;;;;;11.70;11.40;;;;;;;-141.02;100.00;39299.69;5134205;27;20199;-65
2023/08/13 03:18:31;;;;;;;11.32;11.02;;;;;;;-141.02;100.00;39433.94;5136124;27;20701;-65
2023/08/13 03:20:59;;;;;;;11.45;11.15;;;;;;;-141.02;100.00;39570.13;5136532;27;20200;-65
2023/08/13 03:23:26;;;;;;;11.50;11.20;;;;;;;-141.02;100.00;39698.63;5136172;27;20229;-63
2023/08/13 03:25:53;;;;;;;11.50;11.20;;;;;;;-141.02;100.00;39821.38;5136102;27;20185;-63
2023/08/13 03:28:20;;;;;;;11.48;11.18;;;;;;;-141.02;100.00;39938.38;5136372;27;20196;-63
2023/08/13 03:30:47;;;;;;;11.90;11.50;;;;;;;-141.02;100.00;40024.69;5136494;27;20189;-63
2023/08/13 03:33:13;;;;;;;12.23;11.82;;;;;;;-141.02;100.00;40011.25;5136329;27;20204;-63
2023/08/13 03:35:41;;;;;;;13.05;12.65;;;;;;;-141.02;100.00;40015.09;5136049;27;20198;-64
2023/08/13 03:38:09;;;;;;;13.40;13.00;;;;;;;-141.02;100.00;40149.38;5136072;27;20322;-66
2023/08/13 03:40:38;;;;;;;13.00;12.60;;;;;;;-141.02;100.00;40174.31;5136155;27;20197;-65
2023/08/13 03:43:05;;;;;;;14.07;13.57;;;;;;;-141.02;100.00;40270.22;5135986;27;20230;-57
2023/08/13 03:45:32;;;;;;;13.77;13.38;;;;;;;-141.02;100.00;40391.06;5136112;27;20280;-57
2023/08/13 03:47:59;;;;;;;13.75;13.35;;;;;;;-141.02;100.00;40458.22;5135767;27;20287;-66
2023/08/13 03:50:26;;;;;;;13.98;13.48;;;;;;;-141.02;100.00;40502.34;5135919;27;20196;-63
2023/08/13 03:52:53;;;;;;;14.07;13.57;;;;;;;-141.02;100.00;40594.41;5135781;27;20738;-65
2023/08/13 03:55:21;;;;;;;14.10;13.60;;;;;;;-141.02;100.00;40751.72;5135447;27;20193;-64
2023/08/13 03:57:52;;;;;;;14.52;14.02;;;;;;;-141.02;100.00;40586.75;5135479;27;20684;-65
2023/08/13 04:00:19;;;;;;;14.77;14.27;;;;;;;-141.02;100.00;40602.09;5135702;27;20224;-65
2023/08/13 04:02:49;;;;;;;15.93;15.32;;;;;;;-141.02;100.00;40803.53;5135415;27;20279;-64
2023/08/13 04:05:16;;;;;;;15.93;15.32;;;;;;;-141.02;100.00;40934.00;5135866;27;20284;-63
2023/08/13 04:07:43;;;;;;;16.63;15.93;;;;;;;-141.02;100.00;41018.44;5135599;27;20192;-62
2023/08/13 04:10:11;;;;;;;16.98;16.27;;;;;;;-141.02;100.00;41143.16;5135554;27;20220;-65
2023/08/13 04:12:39;;;;;;;17.13;16.42;;;;;;;-141.02;100.00;41039.53;5135391;27;20199;-65
2023/08/13 04:15:07;;;;;;;17.90;17.10;;;;;;;-141.02;100.00;41097.09;5135415;27;20189;-64
2023/08/13 04:17:34;;;;;;;17.77;16.98;;;;;;;-141.02;98.66;41143.16;5135325;27;20225;-66
2023/08/13 04:20:01;;;;;;;18.55;17.65;;;;;;;-141.02;98.35;41173.84;5135006;27;20311;-63
2023/08/13 04:22:28;;;;;;;18.52;17.63;;;;;;;-141.02;97.12;41231.41;5135586;27;20188;-62
2023/08/13 04:24:55;;;;;;;19.15;18.25;;;;;;;-141.02;95.58;41231.41;5135008;27;20235;-61
2023/08/13 04:27:22;;;;;;;18.27;17.48;;;;;;;-141.02;94.61;41269.78;5134717;27;20658;-65
2023/08/13 04:29:51;;;;;;;18.02;17.23;;;;;;;-141.02;92.03;41269.78;5135343;27;20340;-63
2023/08/13 04:32:18;;;;;;;18.73;17.83;;;;;;;-141.02;91.96;41319.69;5135124;27;20196;-64
2023/08/13 04:34:45;;;;;;;18.80;17.90;;;;;;;-141.02;89.90;41313.91;5135106;27;20228;-64
2023/08/13 04:37:12;;;;;;;18.83;17.92;;;;;;;-141.02;89.77;41352.31;5135264;27;20204;-65
2023/08/13 04:39:39;;;;;;;18.90;18.00;;;;;;;-141.02;88.09;41411.78;5134598;27;20314;-66
2023/08/13 04:42:07;;;;;;;18.83;17.92;;;;;;;-141.02;86.03;41475.09;5134885;27;20279;-64
2023/08/13 04:44:33;;;;;;;19.20;18.30;;;;;;;-141.02;84.83;41500.06;5134566;27;20231;-66
2023/08/13 04:47:02;;;;;;;18.23;17.42;;;;;;;-141.02;82.56;41561.47;5135003;27;20194;-64
2023/08/13 04:49:29;;;;;;;18.75;17.85;;;;;;;-141.02;80.62;41572.97;5134471;27;20203;-62
2023/08/13 04:51:56;;;;;;;19.05;18.15;;;;;;;-141.02;79.72;41674.69;5134684;27;20279;-65
2023/08/13 04:54:23;;;;;;;19.25;18.35;;;;;;;-141.02;79.13;41711.16;5134329;27;20641;-66
2023/08/13 04:56:50;;;;;;;18.95;18.05;;;;;;;-141.02;78.22;41726.50;5134294;27;20730;-66
2023/08/13 04:59:17;;;;;;;19.20;18.30;;;;;;;-141.02;76.61;41774.47;5134169;27;20238;-65
2023/08/13 05:01:43;;;;;;;19.38;18.48;;;;;;;-141.02;75.16;41818.63;5134240;27;20235;-64
2023/08/13 05:04:12;;;;;;;19.58;18.58;;;;;;;-141.02;75.77;41812.88;5134164;27;20651;-65
2023/08/13 05:06:39;;;;;;;19.05;18.15;;;;;;;-141.02;77.22;41822.47;5134171;27;20192;-65
2023/08/13 05:09:06;;;;;;;19.27;18.38;;;;;;;-141.02;77.61;41776.41;5134676;27;20253;-65
2023/08/13 05:11:33;;;;;;;19.20;18.25;;;;;;;-141.02;80.33;41774.47;5134300;27;20662;-65
2023/08/13 05:14:00;;;;;;;19.38;18.38;;;;;;;-141.02;82.25;41787.91;5133927;27;20283;-66
2023/08/13 05:16:27;;;;;;;19.20;18.27;;;;;;;-141.02;81.64;41738.03;5133889;27;20241;-67
2023/08/13 05:18:54;;;;;;;19.10;18.20;;;;;;;-141.02;80.54;41778.31;5133858;27;20679;-65
2023/08/13 05:21:22;;;;;;;19.13;18.13;;;;;;;-141.02;81.03;41791.75;5134096;27;20202;-64
2023/08/13 05:23:49;;;;;;;19.13;18.13;;;;;;;-141.02;80.77;41770.66;5133814;27;20220;-62
2023/08/13 05:26:16;;;;;;;18.88;17.98;;;;;;;-141.02;81.85;41843.56;5133754;27;20703;-65
2023/08/13 05:28:43;;;;;;;19.13;18.15;;;;;;;-141.02;82.09;41791.75;5133978;27;20218;-66
2023/08/13 05:31:10;;;;;;;18.80;17.90;;;;;;;-141.02;83.70;41837.81;5134003;27;20249;-66
2023/08/13 05:33:37;;;;;;;18.85;17.95;;;;;;;-141.02;83.42;41745.69;5133962;27;20287;-65
2023/08/13 05:36:05;;;;;;;18.15;17.27;;;;;;;-141.02;83.40;41776.41;5133501;27;20759;-64
2023/08/13 05:38:33;;;;;;;19.08;18.17;;;;;;;-141.02;83.67;41716.91;5133063;27;20686;-64
2023/08/13 05:41:00;;;;;;;18.75;17.85;;;;;;;-141.02;82.86;41747.63;5133440;27;20192;-64
2023/08/13 05:43:27;;;;;;;19.00;18.10;;;;;;;-141.02;85.10;41814.78;5133711;27;20249;-62
2023/08/13 05:45:54;;;;;;;18.98;18.08;;;;;;;-141.02;83.43;41734.19;5133424;27;20231;-66
2023/08/13 05:48:21;;;;;;;18.95;18.05;;;;;;;-141.02;85.09;41703.47;5133318;27;20224;-65
2023/08/13 05:50:48;;;;;;;18.38;17.48;;;;;;;-141.02;85.88;41722.66;5133604;27;20279;-66
2023/08/13 05:53:15;;;;;;;18.80;17.90;;;;;;;-141.02;85.42;41730.34;5133550;27;20291;-63
2023/08/13 05:55:43;;;;;;;18.52;17.63;;;;;;;-141.02;85.87;41799.44;5133580;27;20192;-66
2023/08/13 05:58:10;;;;;;;18.35;17.55;;;;;;;-141.02;85.24;41814.78;5133206;27;20662;-66
2023/08/13 06:00:37;;;;;;;19.27;18.38;;;;;;;-141.02;83.75;41807.09;5133390;27;20597;-65
2023/08/13 06:03:05;;;;;;;18.75;17.85;;;;;;;-141.02;83.40;41780.25;5133506;27;20265;-65
2023/08/13 06:05:32;;;;;;;18.35;17.45;;;;;;;-141.02;84.02;41814.78;5133378;27;20366;-66
2023/08/13 06:07:59;;;;;;;18.48;17.58;;;;;;;-141.02;84.66;41883.88;5133104;27;20198;-66
2023/08/13 06:10:25;;;;;;;18.42;17.52;;;;;;;-141.02;83.10;41807.09;5133359;27;20198;-65
2023/08/13 06:12:54;;;;;;;18.50;17.60;;;;;;;-141.02;83.22;41807.09;5133371;27;20625;-64
2023/08/13 06:15:21;;;;;;;18.00;17.20;;;;;;;-141.02;84.12;41818.63;5133328;27;20650;-65
2023/08/13 06:17:48;;;;;;;18.42;17.52;;;;;;;-141.02;85.52;41818.63;5133276;27;20198;-66
2023/08/13 06:20:17;;;;;;;18.50;17.60;;;;;;;-141.02;85.79;41868.53;5133268;28;20235;-65
2023/08/13 06:22:44;;;;;;;18.35;17.45;;;;;;;-141.02;84.34;41912.66;5133398;28;20196;-64
2023/08/13 06:25:11;;;;;;;18.00;17.17;;;;;;;-141.02;82.29;41929.94;5133074;27;20228;-64
2023/08/13 06:27:38;;;;;;;18.20;17.30;;;;;;;-141.02;81.35;41901.16;5133184;28;20295;-65
2023/08/13 06:30:08;;;;;;;17.85;17.05;;;;;;;-141.02;81.78;41945.28;5133185;28;20286;-63
2023/08/13 06:32:35;;;;;;;18.33;17.42;;;;;;;-141.02;80.96;42002.88;5133257;27;20184;-66
2023/08/13 06:35:03;;;;;;;18.33;17.42;;;;;;;-141.02;80.19;41999.03;5133018;28;20278;-66
2023/08/13 06:37:30;;;;;;;18.30;17.40;;;;;;;-141.02;80.11;41935.69;5133151;27;20192;-64
2023/08/13 06:39:57;;;;;;;18.42;17.52;;;;;;;-141.02;80.02;42012.47;5132707;27;20232;-65
2023/08/13 06:42:24;;;;;;;18.45;17.55;;;;;;;-141.02;78.46;41926.09;5132761;28;20633;-65
2023/08/13 06:44:51;;;;;;;18.33;17.42;;;;;;;-141.02;78.69;41974.06;5133067;28;20196;-64
2023/08/13 06:47:19;;;;;;;18.48;17.58;;;;;;;-141.02;77.87;42002.88;5132634;28;20716;-64
2023/08/13 06:49:46;;;;;;;18.45;17.55;;;;;;;-141.02;76.88;42077.72;5134050;27;20210;-61
2023/08/13 06:52:13;;;;;;;18.20;17.30;;;;;;;-141.02;75.76;42041.25;5136773;27;20195;-63
2023/08/13 06:54:40;;;;;;;18.75;17.85;;;;;;;-141.02;75.73;42089.25;5137053;27;20296;-66
2023/08/13 06:57:07;;;;;;;18.50;17.60;;;;;;;-141.02;73.02;42052.78;5136876;27;20194;-62
2023/08/13 06:59:34;;;;;;;18.23;17.42;;;;;;;-141.02;73.45;42179.44;5136860;27;20227;-67
2023/08/13 07:02:01;;;;;;;18.50;17.60;;;;;;;-141.02;72.64;42194.81;5136588;27;20198;-63
2023/08/13 07:04:29;;;;;;;18.35;17.45;;;;;;;-141.02;71.53;42048.94;5136461;27;20188;-65
2023/08/13 07:06:57;;;;;;;18.52;17.63;;;;;;;-141.02;71.95;42083.47;5136818;27;20193;-67
2023/08/13 07:09:25;;;;;;;18.20;17.30;;;;;;;-141.02;70.74;42190.97;5136586;27;20686;-66
2023/08/13 07:11:52;;;;;;;18.77;17.88;;;;;;;-141.02;69.03;42091.16;5136707;27;20204;-66
2023/08/13 07:14:19;;;;;;;18.58;17.67;;;;;;;-141.02;68.93;42089.25;5136282;27;20239;-66
2023/08/13 07:16:46;;;;;;;17.95;17.15;;;;;;;-141.02;68.90;42156.41;5136515;27;20200;-64
2023/08/13 07:19:13;;;;;;;18.17;17.27;;;;;;;-141.02;68.75;42311.88;5136506;27;20220;-65
2023/08/13 07:21:41;;;;;;;18.63;17.73;;;;;;;-141.02;68.51;42244.72;5136396;27;20199;-66
2023/08/13 07:24:08;;;;;;;18.48;17.58;;;;;;;-141.02;69.21;42315.72;5136066;27;20236;-65
2023/08/13 07:26:35;;;;;;;18.65;17.75;;;;;;;-141.02;68.60;42409.78;5136315;27;20196;-66
2023/08/13 07:29:06;;;;;;;18.58;17.67;;;;;;;-141.02;66.82;42423.22;5136394;27;20196;-66
2023/08/13 07:31:34;;;;;;;18.95;17.95;;;;;;;-141.02;65.64;42348.34;5136905;27;20224;-66
2023/08/13 07:34:01;;;;;;;18.65;17.75;;;;;;;-141.02;64.83;42475.03;5136412;27;20192;-67
2023/08/13 07:36:29;;;;;;;18.52;17.63;;;;;;;-141.02;64.10;42415.53;5136165;27;20296;-64
2023/08/13 07:38:57;;;;;;;18.60;17.70;;;;;;;-141.02;64.65;42455.84;5136015;27;20199;-65
2023/08/13 07:41:24;;;;;;;18.75;17.83;;;;;;;-141.02;63.53;42471.19;5135799;27;20238;-65
2023/08/13 07:43:51;;;;;;;18.90;17.90;;;;;;;-141.02;63.39;42638.22;5136053;27;20199;-66
2023/08/13 07:46:18;;;;;;;18.55;17.65;;;;;;;-141.02;63.26;42571.03;5135719;27;20662;-66
2023/08/13 07:48:44;;;;;;;18.30;17.40;;;;;;;-141.02;63.00;42500.00;5135942;27;20218;-65
2023/08/13 07:51:12;;;;;;;18.40;17.50;;;;;;;-141.02;63.96;42690.03;5135885;27;20280;-66
2023/08/13 07:53:39;;;;;;;18.33;17.42;;;;;;;-141.02;62.19;42780.25;5135582;27;20284;-64
2023/08/13 07:56:07;;;;;;;18.55;17.63;;;;;;;-141.02;61.66;42809.06;5135995;27;20279;-65
2023/08/13 07:58:34;;;;;;;18.15;17.25;;;;;;;-141.02;61.92;42782.19;5135761;27;20201;-66
2023/08/13 08:01:02;;;;;;;18.35;17.45;;;;;;;-141.02;62.54;42889.69;5134752;27;20773;-66
2023/08/13 08:03:29;;;;;;;18.80;17.80;;;;;;;-141.02;63.05;42958.81;5135319;27;20203;-66
2023/08/13 08:05:56;;;;;;;19.02;18.02;;;;;;;-141.02;60.01;42885.84;5135593;27;20211;-67
2023/08/13 08:08:23;;;;;;;19.15;18.17;;;;;;;-141.02;59.57;42893.53;5135443;27;20206;-66
2023/08/13 08:10:50;;;;;;;18.38;17.48;;;;;;;-141.02;59.83;43145.03;5135226;27;20287;-65
2023/08/13 08:13:18;;;;;;;18.60;17.70;;;;;;;-141.02;59.45;43143.09;5135494;27;20211;-67
2023/08/13 08:15:45;;;;;;;18.30;17.40;;;;;;;-141.02;58.99;42686.19;5135663;27;20287;-67
2023/08/13 08:18:12;;;;;;;18.17;17.27;;;;;;;-141.02;59.12;43110.47;5135388;27;20196;-66
2023/08/13 08:20:39;;;;;;;18.60;17.60;;;;;;;-141.02;58.62;43106.63;5134924;27;20576;-57
2023/08/13 08:23:06;;;;;;;18.60;17.63;;;;;;;-141.02;58.70;43216.06;5134831;27;20202;-58
2023/08/13 08:25:33;;;;;;;18.50;17.60;;;;;;;-141.02;57.38;43031.75;5135331;27;20275;-66
2023/08/13 08:28:00;;;;;;;18.20;17.30;;;;;;;-141.02;56.33;43143.09;5134806;27;20239;-67
2023/08/13 08:30:28;;;;;;;18.55;17.65;;;;;;;-141.02;56.13;43244.88;5135139;27;20200;-66
2023/08/13 08:32:55;;;;;;;18.38;17.48;;;;;;;-141.02;53.75;43258.31;5134989;27;20283;-67
2023/08/13 08:35:22;;;;;;;18.40;17.50;;;;;;;-141.02;52.85;43139.28;5134775;27;20210;-66
2023/08/13 08:37:49;;;;;;;18.33;17.42;;;;;;;-141.02;52.85;43081.66;5134988;27;20224;-68
2023/08/13 08:40:16;;;;;;;18.40;17.50;;;;;;;-141.02;54.30;43269.81;5134878;27;20224;-67
2023/08/13 08:42:43;;;;;;;18.73;17.73;;;;;;;-141.02;51.96;43227.59;5134954;27;20218;-65
2023/08/13 08:45:11;;;;;;;18.70;17.70;;;;;;;-141.02;50.23;42359.88;5134488;27;20295;-64
2023/08/13 08:47:41;;;;;;;18.58;17.58;;;;;;;-141.02;51.63;42958.81;5134505;27;20196;-68
2023/08/13 08:50:11;;;;;;;18.40;17.50;;;;;;;-141.02;50.52;43304.38;5135505;27;20191;-66
2023/08/13 08:52:39;;;;;;;18.90;17.90;;;;;;;-141.02;49.58;43266.00;5134686;27;20283;-65
2023/08/13 08:55:07;;;;;;;18.65;17.65;;;;;;;-141.02;50.88;42882.00;5134313;27;20188;-66
2023/08/13 08:57:34;;;;;;;18.52;17.63;;;;;;;-141.02;50.97;42643.97;5134295;27;20196;-61
2023/08/13 09:00:02;;;;;;;18.27;17.38;;;;;;;-141.02;52.01;42630.53;5134165;27;20224;-65
2023/08/13 09:02:30;;;;;;;18.50;17.55;;;;;;;-141.02;52.99;42786.03;5134365;27;20566;-64
2023/08/13 09:04:58;;;;;;;18.23;17.33;;;;;;;-141.02;51.52;42989.53;5134417;27;20188;-64
2023/08/13 09:07:30;;;;;;;18.55;17.58;;;;;;;-141.02;49.14;42701.56;5134166;27;20199;-67
2023/08/13 09:09:57;;;;;;;18.75;17.75;;;;;;;-141.02;50.12;42720.75;5134199;27;20210;-68
2023/08/13 09:12:24;;;;;;;18.77;17.77;;;;;;;-141.02;49.86;42294.63;5134124;27;20192;-65
2023/08/13 09:14:54;;;;;;;18.50;17.52;;;;;;;-141.02;49.82;41789.84;5134487;27;20192;-64
2023/08/13 09:17:24;;;;;;;18.40;17.50;;;;;;;-141.02;51.00;42536.47;5133808;27;20673;-65
2023/08/13 09:19:51;;;;;;;18.42;17.52;;;;;;;-141.02;49.89;42571.03;5134544;27;20223;-68
2023/08/13 09:22:19;;;;;;;18.40;17.50;;;;;;;-141.02;50.81;42674.69;5134033;27;20232;-64
2023/08/13 09:24:48;;;;;;;18.60;17.60;;;;;;;-141.02;49.08;42709.25;5133652;27;20246;-67
2023/08/13 09:27:15;;;;;;;18.38;17.38;;;;;;;-141.02;50.28;41822.47;5133770;27;20194;-66
2023/08/13 09:29:42;;;;;;;18.00;17.10;;;;;;;-141.02;51.28;41860.84;5133727;27;20203;-68
2023/08/13 09:32:09;;;;;;;18.30;17.40;;;;;;;-141.02;51.12;42505.75;5133694;27;20196;-66
2023/08/13 09:34:36;;;;;;;18.33;17.35;;;;;;;-141.02;50.21;42615.16;5133810;27;20195;-59
2023/08/13 09:37:03;;;;;;;18.15;17.25;;;;;;;-141.02;49.46;42667.00;5133608;27;20181;-66
2023/08/13 09:39:32;;;;;;;18.25;17.35;;;;;;;-141.02;49.79;42759.16;5133298;27;20199;-62
2023/08/13 09:42:00;;;;;;;18.65;17.65;;;;;;;-141.02;48.59;42906.97;5133455;27;20188;-67
2023/08/13 09:44:29;;;;;;;18.60;17.60;;;;;;;-141.02;48.88;42640.13;5133630;27;20200;-66
2023/08/13 09:47:01;;;;;;;18.42;17.42;;;;;;;-141.02;48.81;42688.13;5133630;27;20192;-67
2023/08/13 09:49:30;;;;;;;17.98;17.08;;;;;;;-141.02;48.78;42868.56;5133272;27;20203;-65
2023/08/13 09:52:00;;;;;;;18.27;17.38;;;;;;;-141.02;47.65;42691.97;5133412;27;20705;-66
2023/08/13 09:54:36;;;;;;;18.23;17.25;;;;;;;-141.02;47.08;42864.72;5133150;27;20287;-67
2023/08/13 09:57:04;;;;;;;18.00;17.10;;;;;;;-141.02;46.56;42939.59;5133417;27;20183;-64
2023/08/13 09:59:33;;;;;;;18.30;17.40;;;;;;;-141.02;47.96;42605.56;5133117;27;20271;-66
2023/08/13 10:02:01;;;;;;;18.48;17.48;;;;;;;-141.02;48.57;42628.63;5132986;27;20195;-67
2023/08/13 10:04:28;;;;;;;18.48;17.48;;;;;;;-141.02;48.62;42822.50;5132995;27;20636;-65
2023/08/13 10:06:56;;;;;;;18.02;17.13;;;;;;;-141.02;47.83;42736.13;5133301;27;20189;-66
2023/08/13 10:09:25;;;;;;;17.90;17.00;;;;;;;-141.02;47.77;42690.03;5133358;27;20279;-69
2023/08/13 10:11:53;;;;;;;18.00;17.10;;;;;;;-141.02;47.93;42763.00;5133300;27;20196;-65
2023/08/13 10:14:20;;;;;;;17.85;16.95;;;;;;;-141.02;46.88;42655.47;5133098;27;20233;-68
2023/08/13 10:16:48;;;;;;;18.00;17.10;;;;;;;-141.02;47.44;42709.25;5132920;27;20196;-68
2023/08/13 10:19:15;;;;;;;18.27;17.38;;;;;;;-141.02;48.76;42655.47;5132792;27;20275;-66
2023/08/13 10:21:42;;;;;;;18.17;17.27;;;;;;;-141.02;48.05;42703.47;5132977;28;20228;-66
2023/08/13 10:24:12;;;;;;;18.15;17.25;;;;;;;-141.02;46.93;42874.34;5132264;27;20258;-68
2023/08/13 10:26:41;;;;;;;18.42;17.45;;;;;;;-141.02;45.43;42835.94;5132961;28;20196;-67
2023/08/13 10:29:17;;;;;;;18.15;17.25;;;;;;;-141.02;46.46;42784.09;5133044;28;20200;-66
2023/08/13 10:31:49;;;;;;;18.33;17.33;;;;;;;-141.02;46.90;43252.56;5132633;28;20604;-60
2023/08/13 10:34:18;;;;;;;18.58;17.58;;;;;;;-141.02;45.22;42945.38;5132651;28;20643;-67
2023/08/13 10:36:55;;;;;;;18.60;17.60;;;;;;;-141.02;44.95;43016.41;5132902;28;20199;-68
2023/08/13 10:39:34;;;;;;;18.30;17.30;;;;;;;-141.02;45.23;42997.19;5132969;28;20588;-68
2023/08/13 10:42:03;;;;;;;18.55;17.55;;;;;;;-141.02;46.47;42939.59;5132808;28;20318;-66
2023/08/13 10:44:33;;;;;;;18.48;17.58;;;;;;;-141.02;45.64;42870.50;5132658;27;20193;-69
2023/08/13 10:47:00;;;;;;;18.38;17.48;;;;;;;-141.02;46.43;42843.63;5132485;27;20192;-68
2023/08/13 10:49:28;;;;;;;18.30;17.30;;;;;;;-141.02;45.08;42870.50;5132596;27;20283;-64
2023/08/13 10:52:00;;;;;;;18.60;17.60;;;;;;;-141.02;45.81;42789.88;5132786;28;20197;-64
2023/08/13 10:54:27;;;;;;;18.42;17.45;;;;;;;-141.02;46.26;42747.63;5132533;28;20191;-67
2023/08/13 10:56:57;;;;;;;18.23;17.23;;;;;;;-141.02;46.74;42924.25;5132484;28;20193;-68
2023/08/13 10:59:34;;;;;;;18.08;17.17;;;;;;;-141.02;47.13;42868.56;5132475;28;20567;-66
2023/08/13 11:02:13;;;;;;;18.08;17.17;;;;;;;-141.02;45.10;42924.25;5132763;28;20216;-69